sensor_id;sensor_type;location;lat;lon;timestamp;temperature;humidity
72440;DHT22;60446;50.752;4.352;2023-09-30T00:01:59;11.10;88.50
72440;DHT22;60446;50.752;4.352;2023-09-30T00:04:26;11.10;88.90
72440;DHT22;60446;50.752;4.352;2023-09-30T00:06:55;11.10;88.30
72440;DHT22;60446;50.752;4.352;2023-09-30T00:09:22;11.10;87.70
72440;DHT22;60446;50.752;4.352;2023-09-30T00:11:49;11.00;88.20
72440;DHT22;60446;50.752;4.352;2023-09-30T00:14:16;11.00;88.40
72440;DHT22;60446;50.752;4.352;2023-09-30T00:16:44;11.10;88.20
72440;DHT22;60446;50.752;4.352;2023-09-30T00:19:11;11.10;88.50
72440;DHT22;60446;50.752;4.352;2023-09-30T00:21:39;11.10;88.40
72440;DHT22;60446;50.752;4.352;2023-09-30T00:24:06;11.00;87.90
72440;DHT22;60446;50.752;4.352;2023-09-30T00:26:34;11.00;88.60
72440;DHT22;60446;50.752;4.352;2023-09-30T00:29:01;10.90;88.80
72440;DHT22;60446;50.752;4.352;2023-09-30T00:31:31;10.90;88.40
72440;DHT22;60446;50.752;4.352;2023-09-30T00:33:59;10.90;88.20
72440;DHT22;60446;50.752;4.352;2023-09-30T00:36:26;10.90;87.90
72440;DHT22;60446;50.752;4.352;2023-09-30T00:38:54;10.80;88.70
72440;DHT22;60446;50.752;4.352;2023-09-30T00:41:21;10.80;89.80
72440;DHT22;60446;50.752;4.352;2023-09-30T00:43:49;10.90;88.90
72440;DHT22;60446;50.752;4.352;2023-09-30T00:48:53;10.90;88.00
72440;DHT22;60446;50.752;4.352;2023-09-30T00:51:22;10.90;87.80
72440;DHT22;60446;50.752;4.352;2023-09-30T00:53:54;10.80;88.10
72440;DHT22;60446;50.752;4.352;2023-09-30T00:56:25;10.90;88.40
72440;DHT22;60446;50.752;4.352;2023-09-30T00:58:54;10.90;87.80
72440;DHT22;60446;50.752;4.352;2023-09-30T01:01:21;10.90;87.80
72440;DHT22;60446;50.752;4.352;2023-09-30T01:03:49;10.90;87.80
72440;DHT22;60446;50.752;4.352;2023-09-30T01:06:16;10.80;88.80
72440;DHT22;60446;50.752;4.352;2023-09-30T01:08:44;10.80;89.00
72440;DHT22;60446;50.752;4.352;2023-09-30T01:11:12;10.90;89.40
72440;DHT22;60446;50.752;4.352;2023-09-30T01:13:39;11.00;88.60
72440;DHT22;60446;50.752;4.352;2023-09-30T01:16:08;11.00;88.40
72440;DHT22;60446;50.752;4.352;2023-09-30T01:18:38;11.00;87.80
72440;DHT22;60446;50.752;4.352;2023-09-30T01:21:06;11.00;87.90
72440;DHT22;60446;50.752;4.352;2023-09-30T01:23:35;10.90;88.00
72440;DHT22;60446;50.752;4.352;2023-09-30T01:26:03;10.90;88.80
72440;DHT22;60446;50.752;4.352;2023-09-30T01:28:39;11.00;88.60
72440;DHT22;60446;50.752;4.352;2023-09-30T01:31:07;11.00;89.00
72440;DHT22;60446;50.752;4.352;2023-09-30T01:33:34;11.00;89.30
72440;DHT22;60446;50.752;4.352;2023-09-30T01:36:02;11.00;89.40
72440;DHT22;60446;50.752;4.352;2023-09-30T01:38:30;10.90;89.20
72440;DHT22;60446;50.752;4.352;2023-09-30T01:40:57;10.90;88.70
72440;DHT22;60446;50.752;4.352;2023-09-30T01:43:27;10.80;89.40
72440;DHT22;60446;50.752;4.352;2023-09-30T01:45:55;10.90;90.30
72440;DHT22;60446;50.752;4.352;2023-09-30T01:48:23;10.90;90.60
72440;DHT22;60446;50.752;4.352;2023-09-30T01:50:51;10.90;90.40
72440;DHT22;60446;50.752;4.352;2023-09-30T01:53:18;11.00;89.70
72440;DHT22;60446;50.752;4.352;2023-09-30T01:55:45;11.00;89.30
72440;DHT22;60446;50.752;4.352;2023-09-30T01:58:14;10.90;88.50
72440;DHT22;60446;50.752;4.352;2023-09-30T02:00:41;10.80;88.80
72440;DHT22;60446;50.752;4.352;2023-09-30T02:03:09;10.70;89.60
72440;DHT22;60446;50.752;4.352;2023-09-30T02:05:40;10.80;90.10
72440;DHT22;60446;50.752;4.352;2023-09-30T02:08:07;10.80;90.00
72440;DHT22;60446;50.752;4.352;2023-09-30T02:10:35;10.80;90.50
72440;DHT22;60446;50.752;4.352;2023-09-30T02:13:02;10.90;89.80
72440;DHT22;60446;50.752;4.352;2023-09-30T02:15:33;10.80;89.40
72440;DHT22;60446;50.752;4.352;2023-09-30T02:18:01;10.90;89.20
72440;DHT22;60446;50.752;4.352;2023-09-30T02:20:29;10.80;89.00
72440;DHT22;60446;50.752;4.352;2023-09-30T02:22:57;10.80;89.20
72440;DHT22;60446;50.752;4.352;2023-09-30T02:25:25;10.70;89.30
72440;DHT22;60446;50.752;4.352;2023-09-30T02:27:54;10.70;89.90
72440;DHT22;60446;50.752;4.352;2023-09-30T02:30:21;10.70;89.70
72440;DHT22;60446;50.752;4.352;2023-09-30T02:32:48;10.70;89.30
72440;DHT22;60446;50.752;4.352;2023-09-30T02:35:16;10.60;89.60
72440;DHT22;60446;50.752;4.352;2023-09-30T02:37:43;10.60;89.70
72440;DHT22;60446;50.752;4.352;2023-09-30T02:40:10;10.70;89.20
72440;DHT22;60446;50.752;4.352;2023-09-30T02:42:39;10.70;89.00
72440;DHT22;60446;50.752;4.352;2023-09-30T02:45:07;10.60;88.90
72440;DHT22;60446;50.752;4.352;2023-09-30T02:47:37;10.60;89.00
72440;DHT22;60446;50.752;4.352;2023-09-30T02:50:06;10.60;88.80
72440;DHT22;60446;50.752;4.352;2023-09-30T02:52:43;10.50;88.70
72440;DHT22;60446;50.752;4.352;2023-09-30T02:55:10;10.40;89.00
72440;DHT22;60446;50.752;4.352;2023-09-30T02:57:39;10.50;90.00
72440;DHT22;60446;50.752;4.352;2023-09-30T03:00:08;10.50;91.00
72440;DHT22;60446;50.752;4.352;2023-09-30T03:02:54;10.50;90.60
72440;DHT22;60446;50.752;4.352;2023-09-30T03:05:23;10.60;90.10
72440;DHT22;60446;50.752;4.352;2023-09-30T03:07:50;10.60;89.50
72440;DHT22;60446;50.752;4.352;2023-09-30T03:10:18;10.50;89.10
72440;DHT22;60446;50.752;4.352;2023-09-30T03:12:51;10.40;89.20
72440;DHT22;60446;50.752;4.352;2023-09-30T03:15:18;10.40;89.50
72440;DHT22;60446;50.752;4.352;2023-09-30T03:17:46;10.40;90.00
72440;DHT22;60446;50.752;4.352;2023-09-30T03:20:17;10.50;89.70
72440;DHT22;60446;50.752;4.352;2023-09-30T03:22:46;10.50;89.90
72440;DHT22;60446;50.752;4.352;2023-09-30T03:25:17;10.40;89.60
72440;DHT22;60446;50.752;4.352;2023-09-30T03:27:45;10.40;89.60
72440;DHT22;60446;50.752;4.352;2023-09-30T03:30:15;10.30;89.50
72440;DHT22;60446;50.752;4.352;2023-09-30T03:32:43;10.30;89.10
72440;DHT22;60446;50.752;4.352;2023-09-30T03:35:11;10.20;89.90
72440;DHT22;60446;50.752;4.352;2023-09-30T03:37:46;10.30;89.70
72440;DHT22;60446;50.752;4.352;2023-09-30T03:40:14;10.30;89.30
72440;DHT22;60446;50.752;4.352;2023-09-30T03:42:47;10.20;89.00
72440;DHT22;60446;50.752;4.352;2023-09-30T03:45:17;10.20;88.80
72440;DHT22;60446;50.752;4.352;2023-09-30T03:47:46;10.10;88.40
72440;DHT22;60446;50.752;4.352;2023-09-30T03:50:15;10.00;88.60
72440;DHT22;60446;50.752;4.352;2023-09-30T03:52:43;9.90;89.80
72440;DHT22;60446;50.752;4.352;2023-09-30T03:55:17;10.00;90.80
72440;DHT22;60446;50.752;4.352;2023-09-30T03:57:49;10.00;90.50
72440;DHT22;60446;50.752;4.352;2023-09-30T04:00:18;10.00;89.80
72440;DHT22;60446;50.752;4.352;2023-09-30T04:02:48;10.00;89.80
72440;DHT22;60446;50.752;4.352;2023-09-30T04:05:18;10.20;90.00
72440;DHT22;60446;50.752;4.352;2023-09-30T04:07:46;10.20;89.40
72440;DHT22;60446;50.752;4.352;2023-09-30T04:10:14;10.10;89.30
72440;DHT22;60446;50.752;4.352;2023-09-30T04:12:41;10.10;88.90
72440;DHT22;60446;50.752;4.352;2023-09-30T04:15:10;10.00;88.60
72440;DHT22;60446;50.752;4.352;2023-09-30T04:17:39;9.80;88.80
72440;DHT22;60446;50.752;4.352;2023-09-30T04:20:08;9.80;89.10
72440;DHT22;60446;50.752;4.352;2023-09-30T04:22:45;9.80;89.00
72440;DHT22;60446;50.752;4.352;2023-09-30T04:25:17;9.70;88.90
72440;DHT22;60446;50.752;4.352;2023-09-30T04:27:45;9.70;89.40
72440;DHT22;60446;50.752;4.352;2023-09-30T04:30:16;9.70;89.00
72440;DHT22;60446;50.752;4.352;2023-09-30T04:32:45;9.60;89.40
72440;DHT22;60446;50.752;4.352;2023-09-30T04:35:12;9.50;90.00
72440;DHT22;60446;50.752;4.352;2023-09-30T04:37:39;9.50;90.40
72440;DHT22;60446;50.752;4.352;2023-09-30T04:40:08;9.50;90.10
72440;DHT22;60446;50.752;4.352;2023-09-30T04:42:43;9.50;89.80
72440;DHT22;60446;50.752;4.352;2023-09-30T04:45:14;9.40;89.90
72440;DHT22;60446;50.752;4.352;2023-09-30T04:47:47;9.50;90.00
72440;DHT22;60446;50.752;4.352;2023-09-30T04:50:18;9.40;89.60
72440;DHT22;60446;50.752;4.352;2023-09-30T04:52:52;9.40;90.10
72440;DHT22;60446;50.752;4.352;2023-09-30T04:55:20;9.40;89.90
72440;DHT22;60446;50.752;4.352;2023-09-30T04:57:47;9.40;89.80
72440;DHT22;60446;50.752;4.352;2023-09-30T05:00:17;9.30;89.50
72440;DHT22;60446;50.752;4.352;2023-09-30T05:02:52;9.40;89.70
72440;DHT22;60446;50.752;4.352;2023-09-30T05:05:19;9.40;89.30
72440;DHT22;60446;50.752;4.352;2023-09-30T05:07:47;9.40;88.90
72440;DHT22;60446;50.752;4.352;2023-09-30T05:10:17;9.30;88.40
72440;DHT22;60446;50.752;4.352;2023-09-30T05:12:44;9.20;88.30
72440;DHT22;60446;50.752;4.352;2023-09-30T05:15:15;9.10;88.90
72440;DHT22;60446;50.752;4.352;2023-09-30T05:17:44;9.10;89.30
72440;DHT22;60446;50.752;4.352;2023-09-30T05:20:13;9.10;89.30
72440;DHT22;60446;50.752;4.352;2023-09-30T05:22:45;9.10;88.80
72440;DHT22;60446;50.752;4.352;2023-09-30T05:25:14;9.10;89.20
72440;DHT22;60446;50.752;4.352;2023-09-30T05:27:45;9.10;89.50
72440;DHT22;60446;50.752;4.352;2023-09-30T05:30:16;9.20;89.50
72440;DHT22;60446;50.752;4.352;2023-09-30T05:32:44;9.20;89.50
72440;DHT22;60446;50.752;4.352;2023-09-30T05:35:13;9.10;89.50
72440;DHT22;60446;50.752;4.352;2023-09-30T05:37:44;9.10;90.00
72440;DHT22;60446;50.752;4.352;2023-09-30T05:40:12;9.10;89.90
72440;DHT22;60446;50.752;4.352;2023-09-30T05:42:53;9.20;89.50
72440;DHT22;60446;50.752;4.352;2023-09-30T05:45:23;9.10;89.20
72440;DHT22;60446;50.752;4.352;2023-09-30T05:47:50;9.10;89.90
72440;DHT22;60446;50.752;4.352;2023-09-30T05:50:22;9.10;90.00
72440;DHT22;60446;50.752;4.352;2023-09-30T05:52:54;9.10;89.80
72440;DHT22;60446;50.752;4.352;2023-09-30T05:55:23;9.20;89.80
72440;DHT22;60446;50.752;4.352;2023-09-30T05:57:53;9.20;89.30
72440;DHT22;60446;50.752;4.352;2023-09-30T06:00:21;9.10;89.60
72440;DHT22;60446;50.752;4.352;2023-09-30T06:03:02;9.10;90.20
72440;DHT22;60446;50.752;4.352;2023-09-30T06:05:38;9.10;90.50
72440;DHT22;60446;50.752;4.352;2023-09-30T06:08:08;9.20;90.50
72440;DHT22;60446;50.752;4.352;2023-09-30T06:10:41;9.20;90.80
72440;DHT22;60446;50.752;4.352;2023-09-30T06:13:13;9.30;90.60
72440;DHT22;60446;50.752;4.352;2023-09-30T06:15:41;9.20;90.40
72440;DHT22;60446;50.752;4.352;2023-09-30T06:18:10;9.20;90.80
72440;DHT22;60446;50.752;4.352;2023-09-30T06:20:41;9.20;91.00
72440;DHT22;60446;50.752;4.352;2023-09-30T06:23:08;9.30;91.40
72440;DHT22;60446;50.752;4.352;2023-09-30T06:25:37;9.40;91.30
72440;DHT22;60446;50.752;4.352;2023-09-30T06:28:06;9.50;91.50
72440;DHT22;60446;50.752;4.352;2023-09-30T06:30:34;9.50;92.40
72440;DHT22;60446;50.752;4.352;2023-09-30T06:33:02;9.60;92.80
72440;DHT22;60446;50.752;4.352;2023-09-30T06:35:32;9.70;92.70
72440;DHT22;60446;50.752;4.352;2023-09-30T06:38:11;9.80;92.20
72440;DHT22;60446;50.752;4.352;2023-09-30T06:40:38;9.80;92.10
72440;DHT22;60446;50.752;4.352;2023-09-30T06:43:09;9.80;91.90
72440;DHT22;60446;50.752;4.352;2023-09-30T06:45:36;9.80;92.30
72440;DHT22;60446;50.752;4.352;2023-09-30T06:48:09;9.90;92.60
72440;DHT22;60446;50.752;4.352;2023-09-30T06:50:44;10.00;92.70
72440;DHT22;60446;50.752;4.352;2023-09-30T06:53:12;10.00;92.80
72440;DHT22;60446;50.752;4.352;2023-09-30T06:55:39;10.10;92.60
72440;DHT22;60446;50.752;4.352;2023-09-30T06:58:07;10.20;92.40
72440;DHT22;60446;50.752;4.352;2023-09-30T07:00:38;10.10;92.20
72440;DHT22;60446;50.752;4.352;2023-09-30T07:03:05;10.10;92.70
72440;DHT22;60446;50.752;4.352;2023-09-30T07:05:34;10.20;93.10
72440;DHT22;60446;50.752;4.352;2023-09-30T07:08:02;10.20;93.00
72440;DHT22;60446;50.752;4.352;2023-09-30T07:10:30;10.30;93.40
72440;DHT22;60446;50.752;4.352;2023-09-30T07:12:57;10.40;93.80
72440;DHT22;60446;50.752;4.352;2023-09-30T07:15:24;10.50;93.80
72440;DHT22;60446;50.752;4.352;2023-09-30T07:17:52;10.50;93.40
72440;DHT22;60446;50.752;4.352;2023-09-30T07:20:20;10.60;93.50
72440;DHT22;60446;50.752;4.352;2023-09-30T07:22:49;10.70;94.20
72440;DHT22;60446;50.752;4.352;2023-09-30T07:25:33;10.70;94.00
72440;DHT22;60446;50.752;4.352;2023-09-30T07:28:01;10.80;94.20
72440;DHT22;60446;50.752;4.352;2023-09-30T07:30:29;10.80;94.70
72440;DHT22;60446;50.752;4.352;2023-09-30T07:32:56;10.90;94.90
72440;DHT22;60446;50.752;4.352;2023-09-30T07:35:23;11.00;95.80
72440;DHT22;60446;50.752;4.352;2023-09-30T07:37:50;11.20;96.60
72440;DHT22;60446;50.752;4.352;2023-09-30T07:40:20;11.30;96.70
72440;DHT22;60446;50.752;4.352;2023-09-30T07:42:48;11.40;96.70
72440;DHT22;60446;50.752;4.352;2023-09-30T07:45:16;11.50;96.80
72440;DHT22;60446;50.752;4.352;2023-09-30T07:47:44;11.60;97.00
72440;DHT22;60446;50.752;4.352;2023-09-30T07:50:13;11.60;96.80
72440;DHT22;60446;50.752;4.352;2023-09-30T07:52:40;11.70;97.00
72440;DHT22;60446;50.752;4.352;2023-09-30T07:55:09;11.70;97.30
72440;DHT22;60446;50.752;4.352;2023-09-30T07:57:38;11.80;97.50
72440;DHT22;60446;50.752;4.352;2023-09-30T08:00:07;11.80;98.00
72440;DHT22;60446;50.752;4.352;2023-09-30T08:02:37;12.00;98.40
72440;DHT22;60446;50.752;4.352;2023-09-30T08:05:06;12.00;98.10
72440;DHT22;60446;50.752;4.352;2023-09-30T08:07:34;12.10;97.70
72440;DHT22;60446;50.752;4.352;2023-09-30T08:10:02;12.20;97.50
72440;DHT22;60446;50.752;4.352;2023-09-30T08:12:33;12.30;97.50
72440;DHT22;60446;50.752;4.352;2023-09-30T08:15:01;12.50;97.70
72440;DHT22;60446;50.752;4.352;2023-09-30T08:17:31;12.50;97.60
72440;DHT22;60446;50.752;4.352;2023-09-30T08:19:59;12.50;97.40
72440;DHT22;60446;50.752;4.352;2023-09-30T08:22:26;12.60;97.90
72440;DHT22;60446;50.752;4.352;2023-09-30T08:24:55;12.70;98.50
72440;DHT22;60446;50.752;4.352;2023-09-30T08:27:23;12.90;99.00
72440;DHT22;60446;50.752;4.352;2023-09-30T08:29:53;12.90;98.10
72440;DHT22;60446;50.752;4.352;2023-09-30T08:32:20;13.00;97.70
72440;DHT22;60446;50.752;4.352;2023-09-30T08:34:48;13.10;97.40
72440;DHT22;60446;50.752;4.352;2023-09-30T08:37:16;13.10;97.50
72440;DHT22;60446;50.752;4.352;2023-09-30T08:39:43;13.20;97.80
72440;DHT22;60446;50.752;4.352;2023-09-30T08:42:11;13.30;97.00
72440;DHT22;60446;50.752;4.352;2023-09-30T08:44:39;13.40;95.90
72440;DHT22;60446;50.752;4.352;2023-09-30T08:47:07;13.40;96.00
72440;DHT22;60446;50.752;4.352;2023-09-30T08:49:38;13.50;95.60
72440;DHT22;60446;50.752;4.352;2023-09-30T08:52:09;13.50;95.00
72440;DHT22;60446;50.752;4.352;2023-09-30T08:54:40;13.60;94.80
72440;DHT22;60446;50.752;4.352;2023-09-30T08:57:09;13.70;94.70
72440;DHT22;60446;50.752;4.352;2023-09-30T08:59:37;13.80;94.70
72440;DHT22;60446;50.752;4.352;2023-09-30T09:02:11;13.80;94.30
72440;DHT22;60446;50.752;4.352;2023-09-30T09:04:38;13.80;93.10
72440;DHT22;60446;50.752;4.352;2023-09-30T09:07:06;13.90;93.30
72440;DHT22;60446;50.752;4.352;2023-09-30T09:09:33;13.90;93.20
72440;DHT22;60446;50.752;4.352;2023-09-30T09:12:00;13.90;93.20
72440;DHT22;60446;50.752;4.352;2023-09-30T09:14:39;14.00;92.50
72440;DHT22;60446;50.752;4.352;2023-09-30T09:17:10;14.10;91.30
72440;DHT22;60446;50.752;4.352;2023-09-30T09:19:37;14.20;90.60
72440;DHT22;60446;50.752;4.352;2023-09-30T09:22:05;14.30;91.40
72440;DHT22;60446;50.752;4.352;2023-09-30T09:24:35;14.50;91.00
72440;DHT22;60446;50.752;4.352;2023-09-30T09:27:13;14.50;89.30
72440;DHT22;60446;50.752;4.352;2023-09-30T09:29:44;14.60;89.80
72440;DHT22;60446;50.752;4.352;2023-09-30T09:32:16;14.60;89.90
72440;DHT22;60446;50.752;4.352;2023-09-30T09:34:45;14.70;88.00
72440;DHT22;60446;50.752;4.352;2023-09-30T09:37:27;14.80;87.80
72440;DHT22;60446;50.752;4.352;2023-09-30T09:39:56;14.80;86.80
72440;DHT22;60446;50.752;4.352;2023-09-30T09:42:31;14.80;87.00
72440;DHT22;60446;50.752;4.352;2023-09-30T09:45:04;14.80;86.40
72440;DHT22;60446;50.752;4.352;2023-09-30T09:47:33;14.80;86.20
72440;DHT22;60446;50.752;4.352;2023-09-30T09:50:03;14.80;86.90
72440;DHT22;60446;50.752;4.352;2023-09-30T09:52:34;14.80;85.90
72440;DHT22;60446;50.752;4.352;2023-09-30T09:55:02;14.70;86.10
72440;DHT22;60446;50.752;4.352;2023-09-30T09:57:31;14.70;86.60
72440;DHT22;60446;50.752;4.352;2023-09-30T09:59:59;14.70;86.40
72440;DHT22;60446;50.752;4.352;2023-09-30T10:02:27;14.70;87.00
72440;DHT22;60446;50.752;4.352;2023-09-30T10:04:57;14.90;86.80
72440;DHT22;60446;50.752;4.352;2023-09-30T10:07:31;14.90;85.90
72440;DHT22;60446;50.752;4.352;2023-09-30T10:10:03;15.00;84.70
72440;DHT22;60446;50.752;4.352;2023-09-30T10:12:39;15.10;84.70
72440;DHT22;60446;50.752;4.352;2023-09-30T10:18:05;15.50;84.20
72440;DHT22;60446;50.752;4.352;2023-09-30T10:20:44;15.80;80.70
72440;DHT22;60446;50.752;4.352;2023-09-30T10:26:14;16.10;79.20
72440;DHT22;60446;50.752;4.352;2023-09-30T10:28:45;16.20;77.40
72440;DHT22;60446;50.752;4.352;2023-09-30T10:31:18;16.40;79.10
72440;DHT22;60446;50.752;4.352;2023-09-30T10:34:22;16.70;77.80
72440;DHT22;60446;50.752;4.352;2023-09-30T10:36:50;16.90;77.10
72440;DHT22;60446;50.752;4.352;2023-09-30T10:39:55;17.10;74.80
72440;DHT22;60446;50.752;4.352;2023-09-30T10:42:48;17.20;73.10
72440;DHT22;60446;50.752;4.352;2023-09-30T10:51:17;17.40;73.80
72440;DHT22;60446;50.752;4.352;2023-09-30T10:53:50;17.20;73.50
72440;DHT22;60446;50.752;4.352;2023-09-30T10:56:19;16.90;73.90
72440;DHT22;60446;50.752;4.352;2023-09-30T10:58:48;16.80;75.10
72440;DHT22;60446;50.752;4.352;2023-09-30T11:01:21;16.60;75.70
72440;DHT22;60446;50.752;4.352;2023-09-30T11:03:53;16.50;75.90
72440;DHT22;60446;50.752;4.352;2023-09-30T11:06:25;16.50;75.80
72440;DHT22;60446;50.752;4.352;2023-09-30T11:08:55;16.50;73.70
72440;DHT22;60446;50.752;4.352;2023-09-30T11:14:31;16.70;73.80
72440;DHT22;60446;50.752;4.352;2023-09-30T11:17:02;16.90;72.80
72440;DHT22;60446;50.752;4.352;2023-09-30T11:19:41;17.00;71.90
72440;DHT22;60446;50.752;4.352;2023-09-30T11:22:14;17.20;72.10
72440;DHT22;60446;50.752;4.352;2023-09-30T11:24:42;17.40;72.20
72440;DHT22;60446;50.752;4.352;2023-09-30T11:27:09;17.70;70.70
72440;DHT22;60446;50.752;4.352;2023-09-30T11:29:37;18.00;71.80
72440;DHT22;60446;50.752;4.352;2023-09-30T11:32:04;18.10;68.70
72440;DHT22;60446;50.752;4.352;2023-09-30T11:34:36;18.10;69.20
72440;DHT22;60446;50.752;4.352;2023-09-30T11:37:04;18.20;69.30
72440;DHT22;60446;50.752;4.352;2023-09-30T11:39:32;18.10;68.60
72440;DHT22;60446;50.752;4.352;2023-09-30T11:42:01;18.20;68.30
72440;DHT22;60446;50.752;4.352;2023-09-30T11:44:28;18.10;68.40
72440;DHT22;60446;50.752;4.352;2023-09-30T11:47:02;18.00;68.50
72440;DHT22;60446;50.752;4.352;2023-09-30T11:49:40;17.70;68.60
72440;DHT22;60446;50.752;4.352;2023-09-30T11:52:13;17.40;69.70
72440;DHT22;60446;50.752;4.352;2023-09-30T11:54:43;17.30;70.40
72440;DHT22;60446;50.752;4.352;2023-09-30T11:57:15;17.20;69.50
72440;DHT22;60446;50.752;4.352;2023-09-30T11:59:44;17.20;69.80
72440;DHT22;60446;50.752;4.352;2023-09-30T12:02:13;17.30;71.20
72440;DHT22;60446;50.752;4.352;2023-09-30T12:04:43;17.50;67.70
72440;DHT22;60446;50.752;4.352;2023-09-30T12:07:12;17.60;66.60
72440;DHT22;60446;50.752;4.352;2023-09-30T12:09:40;17.50;66.90
72440;DHT22;60446;50.752;4.352;2023-09-30T12:12:09;17.40;67.90
72440;DHT22;60446;50.752;4.352;2023-09-30T12:14:38;17.30;66.10
72440;DHT22;60446;50.752;4.352;2023-09-30T12:17:05;17.40;66.60
72440;DHT22;60446;50.752;4.352;2023-09-30T12:19:32;17.60;65.10
72440;DHT22;60446;50.752;4.352;2023-09-30T12:22:00;17.80;63.00
72440;DHT22;60446;50.752;4.352;2023-09-30T12:24:27;17.90;62.20
72440;DHT22;60446;50.752;4.352;2023-09-30T12:26:54;17.90;63.70
72440;DHT22;60446;50.752;4.352;2023-09-30T12:29:23;17.90;64.50
72440;DHT22;60446;50.752;4.352;2023-09-30T12:31:52;17.90;63.50
72440;DHT22;60446;50.752;4.352;2023-09-30T12:34:22;17.90;62.00
72440;DHT22;60446;50.752;4.352;2023-09-30T12:36:53;17.90;63.00
72440;DHT22;60446;50.752;4.352;2023-09-30T12:39:20;18.00;65.20
72440;DHT22;60446;50.752;4.352;2023-09-30T12:41:53;18.30;66.50
72440;DHT22;60446;50.752;4.352;2023-09-30T12:44:20;18.50;64.00
72440;DHT22;60446;50.752;4.352;2023-09-30T12:46:50;18.60;61.10
72440;DHT22;60446;50.752;4.352;2023-09-30T12:49:18;18.60;62.70
72440;DHT22;60446;50.752;4.352;2023-09-30T12:51:45;18.70;65.20
72440;DHT22;60446;50.752;4.352;2023-09-30T12:54:13;18.80;63.90
72440;DHT22;60446;50.752;4.352;2023-09-30T12:56:41;19.10;63.10
72440;DHT22;60446;50.752;4.352;2023-09-30T12:59:09;19.20;61.70
72440;DHT22;60446;50.752;4.352;2023-09-30T13:01:36;19.20;63.80
72440;DHT22;60446;50.752;4.352;2023-09-30T13:04:03;19.10;60.10
72440;DHT22;60446;50.752;4.352;2023-09-30T13:06:35;19.10;61.50
72440;DHT22;60446;50.752;4.352;2023-09-30T13:09:03;19.10;62.90
72440;DHT22;60446;50.752;4.352;2023-09-30T13:11:35;19.40;63.10
72440;DHT22;60446;50.752;4.352;2023-09-30T13:14:04;19.50;59.80
72440;DHT22;60446;50.752;4.352;2023-09-30T13:16:31;19.40;60.70
72440;DHT22;60446;50.752;4.352;2023-09-30T13:18:59;19.30;60.30
72440;DHT22;60446;50.752;4.352;2023-09-30T13:21:27;19.30;61.90
72440;DHT22;60446;50.752;4.352;2023-09-30T13:23:54;19.30;59.60
72440;DHT22;60446;50.752;4.352;2023-09-30T13:26:21;19.20;61.10
72440;DHT22;60446;50.752;4.352;2023-09-30T13:28:49;19.30;62.40
72440;DHT22;60446;50.752;4.352;2023-09-30T13:31:16;19.10;59.50
72440;DHT22;60446;50.752;4.352;2023-09-30T13:33:43;19.00;59.50
72440;DHT22;60446;50.752;4.352;2023-09-30T13:36:11;19.00;59.60
72440;DHT22;60446;50.752;4.352;2023-09-30T13:38:38;19.10;61.00
72440;DHT22;60446;50.752;4.352;2023-09-30T13:41:05;19.30;61.40
72440;DHT22;60446;50.752;4.352;2023-09-30T13:43:32;19.40;60.80
72440;DHT22;60446;50.752;4.352;2023-09-30T13:46:04;19.50;58.90
72440;DHT22;60446;50.752;4.352;2023-09-30T13:48:34;19.70;62.50
72440;DHT22;60446;50.752;4.352;2023-09-30T13:51:10;19.80;58.70
72440;DHT22;60446;50.752;4.352;2023-09-30T13:53:38;19.90;57.60
72440;DHT22;60446;50.752;4.352;2023-09-30T13:56:06;19.90;56.60
72440;DHT22;60446;50.752;4.352;2023-09-30T13:58:34;20.00;57.20
72440;DHT22;60446;50.752;4.352;2023-09-30T14:01:01;20.20;59.00
72440;DHT22;60446;50.752;4.352;2023-09-30T14:03:29;20.20;59.70
72440;DHT22;60446;50.752;4.352;2023-09-30T14:05:56;20.20;56.70
72440;DHT22;60446;50.752;4.352;2023-09-30T14:08:24;20.00;54.10
72440;DHT22;60446;50.752;4.352;2023-09-30T14:10:52;20.10;55.00
72440;DHT22;60446;50.752;4.352;2023-09-30T14:13:19;20.10;59.40
72440;DHT22;60446;50.752;4.352;2023-09-30T14:15:46;20.30;58.60
72440;DHT22;60446;50.752;4.352;2023-09-30T14:18:16;20.30;60.00
72440;DHT22;60446;50.752;4.352;2023-09-30T14:20:43;20.30;60.10
72440;DHT22;60446;50.752;4.352;2023-09-30T14:23:11;20.40;57.30
72440;DHT22;60446;50.752;4.352;2023-09-30T14:25:38;20.30;58.00
72440;DHT22;60446;50.752;4.352;2023-09-30T14:28:06;20.10;59.30
72440;DHT22;60446;50.752;4.352;2023-09-30T14:30:33;20.00;60.20
72440;DHT22;60446;50.752;4.352;2023-09-30T14:33:01;19.90;58.10
72440;DHT22;60446;50.752;4.352;2023-09-30T14:35:32;20.00;58.80
72440;DHT22;60446;50.752;4.352;2023-09-30T14:38:02;19.90;58.30
72440;DHT22;60446;50.752;4.352;2023-09-30T14:40:36;19.90;58.70
72440;DHT22;60446;50.752;4.352;2023-09-30T14:43:07;19.90;56.00
72440;DHT22;60446;50.752;4.352;2023-09-30T14:45:38;19.80;58.00
72440;DHT22;60446;50.752;4.352;2023-09-30T14:48:07;19.70;58.30
72440;DHT22;60446;50.752;4.352;2023-09-30T14:50:35;19.70;58.80
72440;DHT22;60446;50.752;4.352;2023-09-30T14:53:05;19.60;60.10
72440;DHT22;60446;50.752;4.352;2023-09-30T14:55:33;19.70;60.90
72440;DHT22;60446;50.752;4.352;2023-09-30T14:58:00;19.70;61.60
72440;DHT22;60446;50.752;4.352;2023-09-30T15:00:27;19.80;59.80
72440;DHT22;60446;50.752;4.352;2023-09-30T15:02:55;19.90;59.00
72440;DHT22;60446;50.752;4.352;2023-09-30T15:05:22;19.90;62.80
72440;DHT22;60446;50.752;4.352;2023-09-30T15:07:50;19.90;59.90
72440;DHT22;60446;50.752;4.352;2023-09-30T15:10:18;19.90;60.60
72440;DHT22;60446;50.752;4.352;2023-09-30T15:12:45;19.80;59.30
72440;DHT22;60446;50.752;4.352;2023-09-30T15:15:13;19.80;61.90
72440;DHT22;60446;50.752;4.352;2023-09-30T15:17:40;19.70;60.30
72440;DHT22;60446;50.752;4.352;2023-09-30T15:20:08;19.80;59.70
72440;DHT22;60446;50.752;4.352;2023-09-30T15:22:36;19.90;61.70
72440;DHT22;60446;50.752;4.352;2023-09-30T15:25:04;20.20;61.90
72440;DHT22;60446;50.752;4.352;2023-09-30T15:27:31;20.60;57.20
72440;DHT22;60446;50.752;4.352;2023-09-30T15:29:59;20.70;58.80
72440;DHT22;60446;50.752;4.352;2023-09-30T15:32:26;20.50;57.50
72440;DHT22;60446;50.752;4.352;2023-09-30T15:34:55;20.40;58.50
72440;DHT22;60446;50.752;4.352;2023-09-30T15:37:22;20.00;58.60
72440;DHT22;60446;50.752;4.352;2023-09-30T15:39:49;19.80;59.60
72440;DHT22;60446;50.752;4.352;2023-09-30T15:42:17;19.60;61.20
72440;DHT22;60446;50.752;4.352;2023-09-30T15:44:44;19.40;62.70
72440;DHT22;60446;50.752;4.352;2023-09-30T15:47:12;19.30;62.20
72440;DHT22;60446;50.752;4.352;2023-09-30T15:49:40;19.40;62.40
72440;DHT22;60446;50.752;4.352;2023-09-30T15:52:07;19.40;61.10
72440;DHT22;60446;50.752;4.352;2023-09-30T15:54:34;19.30;60.40
72440;DHT22;60446;50.752;4.352;2023-09-30T15:57:02;19.30;60.40
72440;DHT22;60446;50.752;4.352;2023-09-30T15:59:29;19.20;63.30
72440;DHT22;60446;50.752;4.352;2023-09-30T16:01:56;19.20;59.60
72440;DHT22;60446;50.752;4.352;2023-09-30T16:04:23;19.10;59.10